createdAt,value
2023-02-19T00:02:03.379Z,18.61
2023-02-19T00:04:33.208Z,18.63
2023-02-19T00:07:01.763Z,18.69
2023-02-19T00:09:30.528Z,18.70
2023-02-19T00:11:58.919Z,18.73
2023-02-19T00:14:27.294Z,18.76
2023-02-19T00:16:55.742Z,18.77
2023-02-19T00:19:24.167Z,18.81
2023-02-19T00:21:54.859Z,18.82
2023-02-19T00:24:23.734Z,18.84
2023-02-19T00:26:52.195Z,18.85
2023-02-19T00:29:24.840Z,18.83
2023-02-19T00:31:53.348Z,18.80
2023-02-19T00:34:21.853Z,18.78
2023-02-19T00:36:50.335Z,18.77
2023-02-19T00:39:21.509Z,18.73
2023-02-19T00:41:50.165Z,18.73
2023-02-19T00:44:18.590Z,18.72
2023-02-19T00:46:48.936Z,18.72
2023-02-19T00:49:21.088Z,18.71
2023-02-19T00:51:51.018Z,18.70
2023-02-19T00:54:22.664Z,18.65
2023-02-19T00:56:51.415Z,18.65
2023-02-19T00:59:20.028Z,18.64
2023-02-19T01:01:49.707Z,18.63
2023-02-19T01:04:18.319Z,18.63
2023-02-19T01:06:48.709Z,18.62
2023-02-19T01:09:17.225Z,18.62
2023-02-19T01:11:47.009Z,18.61
2023-02-19T01:14:15.683Z,18.61
2023-02-19T01:16:44.113Z,18.61
2023-02-19T01:19:15.261Z,18.61
2023-02-19T01:21:43.879Z,18.62
2023-02-19T01:24:12.470Z,18.64
2023-02-19T01:26:41.553Z,18.63
2023-02-19T01:29:11.675Z,18.61
2023-02-19T01:31:42.276Z,18.61
2023-02-19T01:34:13.048Z,18.60
2023-02-19T01:36:41.781Z,18.59
2023-02-19T01:39:11.880Z,18.56
2023-02-19T01:41:42.417Z,18.53
2023-02-19T01:48:07.617Z,18.42
2023-02-19T01:50:43.676Z,18.39
2023-02-19T01:53:15.979Z,18.34
2023-02-19T01:55:46.751Z,18.33
2023-02-19T01:58:17.580Z,18.28
2023-02-19T02:00:45.973Z,18.23
2023-02-19T02:03:16.302Z,18.20
2023-02-19T02:05:54.061Z,18.16
2023-02-19T02:08:40.061Z,18.12
2023-02-19T02:11:09.033Z,18.10
2023-02-19T02:13:39.907Z,18.05
2023-02-19T02:16:24.002Z,18.02
2023-02-19T02:19:03.629Z,18.00
2023-02-19T02:21:57.283Z,17.98
2023-02-19T02:25:13.611Z,17.92
2023-02-19T02:27:55.159Z,17.92
2023-02-19T02:30:39.011Z,17.91
2023-02-19T02:33:28.659Z,17.92
2023-02-19T02:36:04.698Z,17.94
2023-02-19T02:38:38.358Z,17.96
2023-02-19T02:41:08.340Z,17.96
2023-02-19T02:43:37.045Z,17.95
2023-02-19T02:46:07.296Z,17.93
2023-02-19T02:48:40.209Z,17.93
2023-02-19T02:51:17.259Z,17.90
2023-02-19T02:54:11.126Z,17.88
2023-02-19T02:56:41.413Z,17.82
2023-02-19T02:59:13.400Z,17.74
2023-02-19T03:02:04.982Z,17.65
2023-02-19T03:04:59.349Z,17.55
2023-02-19T03:07:32.433Z,17.48
2023-02-19T03:10:03.927Z,17.40
2023-02-19T03:12:51.346Z,17.35
2023-02-19T03:15:39.807Z,17.29
2023-02-19T03:18:29.505Z,17.24
2023-02-19T03:21:00.161Z,17.19
2023-02-19T03:23:46.091Z,17.17
2023-02-19T03:26:15.941Z,17.15
2023-02-19T03:29:04.377Z,17.13
2023-02-19T03:31:34.272Z,17.10
2023-02-19T03:34:10.039Z,17.09
2023-02-19T03:36:45.102Z,17.10
2023-02-19T03:39:18.927Z,17.11
2023-02-19T03:42:00.067Z,17.09
2023-02-19T03:44:42.561Z,17.11
2023-02-19T03:47:19.845Z,17.13
2023-02-19T03:49:56.679Z,17.13
2023-02-19T03:52:34.056Z,17.13
2023-02-19T03:55:07.934Z,17.12
2023-02-19T03:57:50.449Z,17.11
2023-02-19T04:00:24.382Z,17.11
2023-02-19T04:02:59.718Z,17.10
2023-02-19T04:05:33.988Z,17.11
2023-02-19T04:08:09.278Z,17.12
2023-02-19T04:10:39.267Z,17.10
2023-02-19T04:13:14.933Z,17.16
2023-02-19T04:15:45.691Z,17.15
2023-02-19T04:18:19.720Z,17.13
2023-02-19T04:20:50.105Z,17.14
2023-02-19T04:23:23.047Z,17.14
2023-02-19T04:25:57.313Z,17.12
2023-02-19T04:28:25.868Z,17.11
2023-02-19T04:30:54.319Z,17.10
2023-02-19T04:33:22.795Z,17.10
2023-02-19T04:35:52.597Z,17.09
2023-02-19T04:38:21.072Z,17.10
2023-02-19T04:40:51.472Z,17.08
2023-02-19T04:43:20.164Z,17.07
2023-02-19T04:45:48.600Z,17.09
2023-02-19T04:48:17.010Z,17.09
2023-02-19T04:50:45.407Z,17.09
2023-02-19T04:53:15.336Z,17.07
2023-02-19T04:55:43.799Z,17.08
2023-02-19T04:58:12.228Z,17.10
2023-02-19T05:00:40.635Z,17.11
2023-02-19T05:03:09.086Z,17.13
2023-02-19T05:05:37.470Z,17.15
2023-02-19T05:08:06.386Z,17.15
2023-02-19T05:10:36.152Z,17.12
2023-02-19T05:13:04.618Z,17.10
2023-02-19T05:15:33.048Z,17.03
2023-02-19T05:18:01.474Z,16.97
2023-02-19T05:20:29.967Z,16.88
2023-02-19T05:22:58.549Z,16.78
2023-02-19T05:25:26.971Z,16.67
2023-02-19T05:28:16.730Z,16.58
2023-02-19T05:30:45.481Z,16.47
2023-02-19T05:33:14.900Z,16.39
2023-02-19T05:35:45.633Z,16.33
2023-02-19T05:38:14.413Z,16.27
2023-02-19T05:40:43.295Z,16.20
2023-02-19T05:43:14.279Z,16.13
2023-02-19T05:45:43.094Z,16.09
2023-02-19T05:48:13.375Z,16.04
2023-02-19T05:50:41.789Z,16.00
2023-02-19T05:53:10.837Z,15.99
2023-02-19T05:55:39.317Z,15.96
2023-02-19T05:58:07.766Z,15.94
2023-02-19T06:00:37.720Z,15.92
2023-02-19T06:03:06.269Z,15.90
2023-02-19T06:05:34.701Z,15.88
2023-02-19T06:08:03.096Z,15.86
2023-02-19T06:10:31.618Z,15.84
2023-02-19T06:13:00.046Z,15.82
2023-02-19T06:15:28.517Z,15.78
2023-02-19T06:17:58.322Z,15.77
2023-02-19T06:20:26.743Z,15.75
2023-02-19T06:22:55.256Z,15.74
2023-02-19T06:25:23.652Z,15.73
2023-02-19T06:27:52.068Z,15.74
2023-02-19T06:30:20.948Z,15.74
2023-02-19T06:32:49.386Z,15.74
2023-02-19T06:35:19.330Z,15.76
2023-02-19T06:37:48.529Z,15.77
2023-02-19T06:40:17.316Z,15.81
2023-02-19T06:42:45.705Z,15.84
2023-02-19T06:45:15.515Z,15.87
2023-02-19T06:47:44.240Z,15.93
2023-02-19T06:50:12.669Z,15.97
2023-02-19T06:52:42.431Z,16.02
2023-02-19T06:55:11.184Z,16.07
2023-02-19T06:57:39.550Z,16.13
2023-02-19T07:00:10.237Z,16.16
2023-02-19T07:02:38.625Z,16.21
2023-02-19T07:05:07.983Z,16.22
2023-02-19T07:07:36.460Z,16.25
2023-02-19T07:10:07.511Z,16.26
2023-02-19T07:12:35.904Z,16.29
2023-02-19T07:15:04.390Z,16.33
2023-02-19T07:17:32.771Z,16.36
2023-02-19T07:20:01.296Z,16.39
2023-02-19T07:22:29.730Z,16.45
2023-02-19T07:24:58.179Z,16.50
2023-02-19T07:27:27.941Z,16.53
2023-02-19T07:29:56.343Z,16.55
2023-02-19T07:32:24.746Z,16.58
2023-02-19T07:34:53.189Z,16.61
2023-02-19T07:37:21.826Z,16.67
2023-02-19T07:39:51.112Z,16.72
2023-02-19T07:42:19.516Z,16.79
2023-02-19T07:44:49.278Z,16.84
2023-02-19T07:47:17.849Z,16.87
2023-02-19T07:49:46.286Z,16.86
2023-02-19T07:52:14.729Z,16.84
2023-02-19T07:54:43.164Z,16.82
2023-02-19T07:57:11.829Z,16.83
2023-02-19T07:59:40.331Z,16.84
2023-02-19T08:02:35.495Z,16.87
2023-02-19T08:05:04.537Z,16.95
2023-02-19T08:07:33.826Z,17.05
2023-02-19T08:10:16.404Z,17.18
2023-02-19T08:13:01.982Z,17.30
2023-02-19T08:15:30.570Z,17.37
2023-02-19T08:18:00.340Z,17.41
2023-02-19T08:20:28.811Z,17.45
2023-02-19T08:22:57.192Z,17.45
2023-02-19T08:25:25.957Z,17.46
2023-02-19T08:27:54.466Z,17.48
2023-02-19T08:30:23.844Z,17.51
2023-02-19T08:32:52.332Z,17.58
2023-02-19T08:35:22.526Z,17.68
2023-02-19T08:37:51.124Z,17.83
2023-02-19T08:40:19.993Z,17.98
2023-02-19T08:42:48.550Z,18.11
2023-02-19T08:45:17.314Z,18.16
2023-02-19T08:47:46.536Z,18.17
2023-02-19T08:50:15.045Z,18.12
2023-02-19T08:52:44.886Z,18.00
2023-02-19T08:55:13.425Z,17.89
2023-02-19T08:57:42.207Z,17.81
2023-02-19T09:00:13.076Z,17.70
2023-02-19T09:02:41.577Z,17.70
2023-02-19T09:05:10.128Z,17.75
2023-02-19T09:07:38.640Z,17.82
2023-02-19T09:10:09.946Z,17.91
2023-02-19T09:12:38.531Z,17.99
2023-02-19T09:15:08.619Z,18.11
2023-02-19T09:17:37.177Z,18.24
2023-02-19T09:20:06.467Z,18.39
2023-02-19T09:22:35.148Z,18.55
2023-02-19T09:25:03.626Z,18.66
2023-02-19T09:27:33.709Z,18.78
2023-02-19T09:30:02.267Z,18.89
2023-02-19T09:32:32.250Z,18.88
2023-02-19T09:35:00.952Z,18.80
2023-02-19T09:37:32.040Z,18.76
2023-02-19T09:40:01.683Z,18.73
2023-02-19T09:42:34.330Z,18.71
2023-02-19T09:45:05.679Z,18.65
2023-02-19T09:47:35.780Z,18.61
2023-02-19T09:50:09.678Z,18.57
2023-02-19T09:52:43.482Z,18.52
2023-02-19T09:55:19.462Z,18.50
2023-02-19T09:57:50.456Z,18.48
2023-02-19T10:00:25.909Z,18.44
2023-02-19T10:02:59.446Z,18.45
2023-02-19T10:05:28.479Z,18.45
2023-02-19T10:07:57.748Z,18.42
2023-02-19T10:10:33.214Z,18.37
2023-02-19T10:13:16.747Z,18.34
2023-02-19T10:15:53.070Z,18.36
2023-02-19T10:18:28.404Z,18.37
2023-02-19T10:20:58.455Z,18.39
2023-02-19T10:23:27.733Z,18.43
2023-02-19T10:25:58.447Z,18.47
2023-02-19T10:28:33.065Z,18.50
2023-02-19T10:31:05.305Z,18.52
2023-02-19T10:33:33.937Z,18.49
2023-02-19T10:36:07.234Z,18.45
2023-02-19T10:38:40.453Z,18.50
2023-02-19T10:41:19.041Z,18.49
2023-02-19T10:44:01.260Z,18.49
2023-02-19T10:46:34.243Z,18.51
2023-02-19T10:49:14.105Z,18.55
2023-02-19T10:51:45.628Z,18.60
2023-02-19T10:54:20.981Z,18.64
2023-02-19T10:56:50.503Z,18.79
2023-02-19T10:59:29.946Z,19.04
2023-02-19T11:02:00.640Z,19.45
2023-02-19T11:04:34.235Z,19.85
2023-02-19T11:07:11.482Z,20.31
2023-02-19T11:09:42.804Z,20.71
2023-02-19T11:12:13.933Z,21.10
2023-02-19T11:14:46.709Z,21.37
2023-02-19T11:17:26.372Z,21.65
2023-02-19T11:19:57.635Z,21.97
2023-02-19T11:22:39.197Z,22.28
2023-02-19T11:25:22.129Z,22.64
2023-02-19T11:28:02.745Z,23.04
2023-02-19T11:30:51.114Z,23.57
2023-02-19T11:33:32.042Z,24.13
2023-02-19T11:36:28.779Z,24.29
2023-02-19T11:39:04.878Z,23.99
2023-02-19T11:42:12.463Z,23.61
2023-02-19T11:44:57.906Z,23.22
2023-02-19T11:48:09.962Z,22.84
2023-02-19T11:50:58.131Z,22.48
2023-02-19T11:53:32.143Z,22.16
2023-02-19T11:56:16.552Z,21.79
2023-02-19T11:59:06.372Z,21.51
2023-02-19T12:02:15.942Z,21.14
2023-02-19T12:05:26.728Z,20.57
2023-02-19T12:08:32.113Z,19.82
2023-02-19T12:11:45.581Z,19.00
2023-02-19T12:15:00.493Z,18.37
2023-02-19T12:17:52.739Z,17.95
2023-02-19T12:20:33.724Z,17.65
2023-02-19T12:23:34.878Z,17.36
2023-02-19T12:26:16.178Z,17.24
2023-02-19T12:29:31.812Z,17.23
2023-02-19T12:32:35.194Z,17.37
2023-02-19T12:35:47.477Z,17.55
2023-02-19T12:38:28.618Z,17.69
2023-02-19T12:41:21.256Z,17.86
2023-02-19T12:43:59.338Z,18.01
2023-02-19T12:46:33.585Z,18.20
2023-02-19T12:49:12.093Z,18.43
2023-02-19T12:51:49.252Z,18.74
2023-02-19T12:54:25.209Z,18.98
2023-02-19T12:57:02.608Z,19.30
2023-02-19T12:59:36.590Z,19.66
2023-02-19T13:02:16.910Z,19.90
2023-02-19T13:04:55.384Z,19.96
2023-02-19T13:07:35.047Z,19.94
2023-02-19T13:10:28.827Z,20.07
2023-02-19T13:13:02.538Z,20.23
2023-02-19T13:15:37.252Z,20.24
2023-02-19T13:18:15.337Z,20.39
2023-02-19T13:20:46.659Z,20.72
2023-02-19T13:23:39.970Z,21.24
2023-02-19T13:26:37.470Z,21.69
2023-02-19T13:29:27.943Z,22.09
2023-02-19T13:32:19.440Z,22.05
2023-02-19T13:35:05.762Z,21.84
2023-02-19T13:37:36.156Z,21.59
2023-02-19T13:40:21.441Z,21.31
2023-02-19T13:42:56.450Z,21.07
2023-02-19T13:45:34.591Z,20.78
2023-02-19T13:48:26.438Z,20.56
2023-02-19T13:51:51.184Z,20.23
2023-02-19T13:54:28.353Z,19.92
2023-02-19T13:57:29.030Z,19.36
2023-02-19T14:00:00.255Z,19.00
2023-02-19T14:02:35.650Z,18.63
2023-02-19T14:05:11.335Z,18.28
2023-02-19T14:07:57.065Z,17.89
2023-02-19T14:11:03.606Z,17.47
2023-02-19T14:14:07.525Z,17.12
2023-02-19T14:17:01.641Z,16.85
2023-02-19T14:19:57.055Z,16.62
2023-02-19T14:23:04.520Z,16.45
2023-02-19T14:25:54.849Z,16.30
2023-02-19T14:28:39.867Z,16.20
2023-02-19T14:31:27.306Z,16.11
2023-02-19T14:34:01.265Z,16.02
2023-02-19T14:36:49.022Z,15.93
2023-02-19T14:39:23.284Z,15.90
2023-02-19T14:41:56.629Z,15.86
2023-02-19T14:44:30.899Z,15.80
2023-02-19T14:47:07.087Z,15.76
2023-02-19T14:49:44.265Z,15.74
2023-02-19T14:52:19.513Z,15.70
2023-02-19T14:54:55.344Z,15.64
2023-02-19T14:57:30.908Z,15.62
2023-02-19T15:00:03.679Z,15.56
2023-02-19T15:02:43.540Z,15.51
2023-02-19T15:05:18.458Z,15.45
2023-02-19T15:07:48.583Z,15.44
2023-02-19T15:10:19.251Z,15.42
2023-02-19T15:12:52.709Z,15.39
2023-02-19T15:15:26.582Z,15.34
2023-02-19T15:17:59.702Z,15.29
2023-02-19T15:20:36.881Z,15.20
2023-02-19T15:23:09.524Z,15.12
2023-02-19T15:25:46.005Z,15.02
2023-02-19T15:28:33.775Z,14.89
2023-02-19T15:31:16.818Z,14.77
2023-02-19T15:33:56.372Z,14.71
2023-02-19T15:36:32.175Z,14.67
2023-02-19T15:39:05.251Z,14.61
2023-02-19T15:41:37.610Z,14.54
2023-02-19T15:44:39.008Z,14.46
2023-02-19T15:47:20.656Z,14.42
2023-02-19T15:50:01.012Z,14.36
2023-02-19T15:52:41.108Z,14.31
2023-02-19T15:55:29.351Z,14.22
2023-02-19T15:58:10.084Z,14.15
2023-02-19T16:00:48.002Z,14.07
2023-02-19T16:03:22.409Z,14.00
2023-02-19T16:06:05.024Z,13.93
2023-02-19T16:08:36.877Z,13.87
2023-02-19T16:11:08.805Z,13.78
2023-02-19T16:13:38.646Z,13.71
2023-02-19T16:16:27.749Z,13.64
2023-02-19T16:18:58.100Z,13.58
2023-02-19T16:21:31.471Z,13.51
2023-02-19T16:24:06.659Z,13.43
2023-02-19T16:26:43.048Z,13.36
2023-02-19T16:29:26.030Z,13.29
2023-02-19T16:32:00.216Z,13.23
2023-02-19T16:34:42.867Z,13.14
2023-02-19T16:37:59.694Z,13.03
2023-02-19T16:41:18.346Z,12.95
2023-02-19T16:43:49.778Z,12.92
2023-02-19T16:46:20.591Z,12.86
2023-02-19T16:48:51.903Z,12.82
2023-02-19T16:51:28.384Z,12.80
2023-02-19T16:54:00.382Z,12.81
2023-02-19T16:56:34.169Z,12.82
2023-02-19T16:59:05.345Z,12.83
2023-02-19T17:01:35.350Z,12.84
2023-02-19T17:04:08.259Z,12.84
2023-02-19T17:06:39.544Z,12.82
2023-02-19T17:09:15.044Z,12.77
2023-02-19T17:11:46.397Z,12.75
2023-02-19T17:14:19.128Z,12.71
2023-02-19T17:16:53.970Z,12.66
2023-02-19T17:19:25.270Z,12.67
2023-02-19T17:21:55.272Z,12.66
2023-02-19T17:24:26.806Z,12.65
2023-02-19T17:26:57.378Z,12.65
2023-02-19T17:29:29.117Z,12.65
2023-02-19T17:32:01.276Z,12.64
2023-02-19T17:34:32.884Z,12.64
2023-02-19T17:37:04.625Z,12.63
2023-02-19T17:39:36.629Z,12.62
2023-02-19T17:42:07.183Z,12.62
2023-02-19T17:44:36.569Z,12.61
2023-02-19T17:47:09.967Z,12.60
2023-02-19T17:49:40.895Z,12.58
2023-02-19T17:52:18.113Z,12.58
2023-02-19T17:54:52.710Z,12.54
2023-02-19T17:57:23.370Z,12.55
2023-02-19T17:59:53.630Z,12.55
2023-02-19T18:02:23.728Z,12.55
2023-02-19T18:04:54.188Z,12.56
2023-02-19T18:07:24.892Z,12.57
2023-02-19T18:09:57.758Z,12.56
2023-02-19T18:12:29.056Z,12.57
2023-02-19T18:14:59.755Z,12.58
2023-02-19T18:17:31.602Z,12.60
2023-02-19T18:20:05.729Z,12.61
2023-02-19T18:22:36.446Z,12.63
2023-02-19T18:25:09.052Z,12.65
2023-02-19T18:27:40.237Z,12.67
2023-02-19T18:30:12.813Z,12.71
2023-02-19T18:32:46.422Z,12.77
2023-02-19T18:35:18.945Z,12.81
2023-02-19T18:37:52.187Z,12.84
2023-02-19T18:40:26.000Z,12.87
2023-02-19T18:42:57.097Z,12.91
2023-02-19T18:45:28.052Z,12.93
2023-02-19T18:47:58.196Z,12.96
2023-02-19T18:50:28.374Z,12.97
2023-02-19T18:53:00.102Z,13.00
2023-02-19T18:55:32.409Z,13.01
2023-02-19T18:58:03.648Z,13.01
2023-02-19T19:00:33.748Z,13.02
2023-02-19T19:03:03.760Z,13.04
2023-02-19T19:05:35.427Z,13.05
2023-02-19T19:08:06.465Z,13.08
2023-02-19T19:10:40.285Z,13.11
2023-02-19T19:13:11.010Z,13.14
2023-02-19T19:15:41.584Z,13.15
2023-02-19T19:18:16.707Z,13.16
2023-02-19T19:20:47.704Z,13.18
2023-02-19T19:23:18.405Z,13.20
2023-02-19T19:25:53.666Z,13.20
2023-02-19T19:28:26.635Z,13.24
2023-02-19T19:30:57.383Z,13.25
2023-02-19T19:33:30.583Z,13.27
2023-02-19T19:36:03.442Z,13.28
2023-02-19T19:38:35.148Z,13.31
2023-02-19T19:41:07.733Z,13.33
2023-02-19T19:43:37.872Z,13.36
2023-02-19T19:46:12.477Z,13.39
2023-02-19T19:48:45.851Z,13.42
2023-02-19T19:51:16.447Z,13.45
2023-02-19T19:53:49.111Z,13.48
2023-02-19T19:56:21.813Z,13.50
2023-02-19T19:58:52.621Z,13.51
2023-02-19T20:01:24.410Z,13.53
2023-02-19T20:03:57.660Z,13.56
2023-02-19T20:06:31.361Z,13.59
2023-02-19T20:09:02.275Z,13.60
2023-02-19T20:11:35.313Z,13.63
2023-02-19T20:14:07.642Z,13.64
2023-02-19T20:16:38.341Z,13.65
2023-02-19T20:19:08.322Z,13.68
2023-02-19T20:21:38.932Z,13.66
2023-02-19T20:24:10.452Z,13.67
2023-02-19T20:26:45.749Z,13.65
2023-02-19T20:29:17.793Z,13.63
2023-02-19T20:31:54.877Z,13.60
2023-02-19T20:34:25.992Z,13.56
2023-02-19T20:36:58.420Z,13.52
2023-02-19T20:39:29.808Z,13.49
2023-02-19T20:42:03.285Z,13.45
2023-02-19T20:44:34.221Z,13.38
2023-02-19T20:47:03.997Z,13.31
2023-02-19T20:49:37.189Z,13.19
2023-02-19T20:52:09.897Z,13.06
2023-02-19T20:54:40.582Z,12.97
2023-02-19T20:57:13.290Z,12.88
2023-02-19T20:59:44.486Z,12.80
2023-02-19T21:02:19.942Z,12.73
2023-02-19T21:04:49.616Z,12.68
2023-02-19T21:07:20.937Z,12.63
2023-02-19T21:09:52.644Z,12.57
2023-02-19T21:12:24.243Z,12.52
2023-02-19T21:14:54.208Z,12.48
2023-02-19T21:17:24.097Z,12.45
2023-02-19T21:19:54.074Z,12.42
2023-02-19T21:22:23.777Z,12.39
2023-02-19T21:24:55.022Z,12.37
2023-02-19T21:27:27.239Z,12.35
2023-02-19T21:29:56.652Z,12.31
2023-02-19T21:32:25.421Z,12.30
2023-02-19T21:34:55.730Z,12.29
2023-02-19T21:37:25.900Z,12.26
2023-02-19T21:39:59.242Z,12.24
2023-02-19T21:42:29.481Z,12.20
2023-02-19T21:44:59.087Z,12.16
2023-02-19T21:47:29.429Z,12.12
2023-02-19T21:49:58.350Z,12.06
2023-02-19T21:52:28.941Z,12.02
2023-02-19T21:54:57.956Z,11.96
2023-02-19T21:57:26.695Z,11.93
2023-02-19T21:59:56.801Z,11.88
2023-02-19T22:02:25.467Z,11.86
2023-02-19T22:04:54.752Z,11.85
2023-02-19T22:07:23.383Z,11.82
2023-02-19T22:09:53.083Z,11.80
2023-02-19T22:12:22.122Z,11.78
2023-02-19T22:14:51.704Z,11.78
2023-02-19T22:17:22.234Z,11.76
2023-02-19T22:19:50.660Z,11.76
2023-02-19T22:22:19.203Z,11.74
2023-02-19T22:24:47.614Z,11.73
2023-02-19T22:27:16.065Z,11.72
2023-02-19T22:29:44.473Z,11.73
2023-02-19T22:32:13.014Z,11.75
2023-02-19T22:34:43.742Z,11.76
2023-02-19T22:37:12.393Z,11.78
2023-02-19T22:39:40.787Z,11.79
2023-02-19T22:42:09.253Z,11.79
2023-02-19T22:44:38.394Z,11.79
2023-02-19T22:47:07.058Z,11.80
2023-02-19T22:49:38.677Z,11.79
2023-02-19T22:52:11.081Z,11.77
2023-02-19T22:54:40.849Z,11.76
2023-02-19T22:57:09.521Z,11.76
2023-02-19T22:59:37.944Z,11.76
2023-02-19T23:02:06.716Z,11.76
2023-02-19T23:04:35.267Z,11.75
2023-02-19T23:07:03.744Z,11.73
2023-02-19T23:09:33.879Z,11.68
2023-02-19T23:12:05.095Z,11.64
2023-02-19T23:14:34.194Z,11.60
2023-02-19T23:17:02.878Z,11.56
2023-02-19T23:19:31.994Z,11.50
2023-02-19T23:22:00.667Z,11.45
2023-02-19T23:24:29.182Z,11.41
2023-02-19T23:26:59.681Z,11.36
2023-02-19T23:29:30.858Z,11.32
2023-02-19T23:32:00.354Z,11.29
2023-02-19T23:34:28.975Z,11.25
2023-02-19T23:36:59.611Z,11.22
2023-02-19T23:39:28.090Z,11.18
2023-02-19T23:41:59.425Z,11.14
2023-02-19T23:44:27.912Z,11.10
2023-02-19T23:46:56.384Z,11.07
2023-02-19T23:49:24.990Z,11.05
2023-02-19T23:51:53.467Z,11.01
2023-02-19T23:54:21.965Z,11.00
2023-02-19T23:56:50.474Z,10.99
2023-02-19T23:59:20.364Z,10.97
